createdAt,value
2023-02-05T00:01:21.215Z,103477.31
2023-02-05T00:03:47.855Z,103487.38
2023-02-05T00:06:14.437Z,103483.47
2023-02-05T00:08:41.016Z,103485.91
2023-02-05T00:11:09.472Z,103478.75
2023-02-05T00:13:37.325Z,103469.50
2023-02-05T00:16:11.008Z,103467.47
2023-02-05T00:18:37.749Z,103471.34
2023-02-05T00:21:06.060Z,103476.47
2023-02-05T00:23:33.688Z,103475.03
2023-02-05T00:26:00.214Z,103469.72
2023-02-05T00:28:26.757Z,103469.06
2023-02-05T00:30:53.482Z,103467.03
2023-02-05T00:33:21.890Z,103472.97
2023-02-05T00:35:49.163Z,103470.06
2023-02-05T00:38:15.763Z,103462.06
2023-02-05T00:40:42.528Z,103470.84
2023-02-05T00:43:09.449Z,103480.22
2023-02-05T00:45:36.484Z,103479.81
2023-02-05T00:48:04.486Z,103475.94
2023-02-05T00:50:31.475Z,103473.28
2023-02-05T00:52:57.969Z,103471.00
2023-02-05T00:55:24.512Z,103468.09
2023-02-05T00:57:51.093Z,103469.13
2023-02-05T01:00:18.467Z,103457.06
2023-02-05T01:02:45.048Z,103455.22
2023-02-05T01:05:11.853Z,103451.94
2023-02-05T01:07:38.367Z,103454.78
2023-02-05T01:10:06.274Z,103449.69
2023-02-05T01:12:33.332Z,103438.63
2023-02-05T01:15:00.909Z,103441.66
2023-02-05T01:17:27.484Z,103435.75
2023-02-05T01:19:54.026Z,103439.81
2023-02-05T01:22:20.605Z,103434.88
2023-02-05T01:24:47.315Z,103427.91
2023-02-05T01:27:13.857Z,103421.81
2023-02-05T01:29:40.447Z,103431.19
2023-02-05T01:32:07.027Z,103434.22
2023-02-05T01:34:33.568Z,103429.94
2023-02-05T01:37:00.149Z,103425.03
2023-02-05T01:39:26.720Z,103427.03
2023-02-05T01:41:53.336Z,103420.28
2023-02-05T01:44:25.261Z,103415.78
2023-02-05T01:46:53.262Z,103419.66
2023-02-05T01:49:38.714Z,103418.03
2023-02-05T01:52:12.140Z,103410.63
2023-02-05T01:54:42.177Z,103406.34
2023-02-05T01:57:11.850Z,103391.63
2023-02-05T01:59:40.712Z,103400.22
2023-02-05T02:02:07.918Z,103392.44
2023-02-05T02:04:38.561Z,103385.50
2023-02-05T02:07:05.847Z,103386.50
2023-02-05T02:09:33.982Z,103381.41
2023-02-05T02:12:01.045Z,103379.94
2023-02-05T02:14:29.389Z,103379.13
2023-02-05T02:16:55.939Z,103373.00
2023-02-05T02:19:32.891Z,103368.69
2023-02-05T02:22:12.980Z,103361.56
2023-02-05T02:24:51.305Z,103362.75
2023-02-05T02:27:32.860Z,103354.19
2023-02-05T02:30:09.150Z,103359.69
2023-02-05T02:32:47.366Z,103357.22
2023-02-05T02:35:19.841Z,103347.63
2023-02-05T02:38:01.269Z,103350.03
2023-02-05T02:40:37.121Z,103342.03
2023-02-05T02:43:09.312Z,103335.88
2023-02-05T02:45:42.116Z,103335.03
2023-02-05T02:48:10.645Z,103341.34
2023-02-05T02:50:41.469Z,103341.91
2023-02-05T02:53:20.958Z,103335.59
2023-02-05T02:55:49.115Z,103337.63
2023-02-05T02:58:20.434Z,103331.88
2023-02-05T03:00:48.061Z,103330.44
2023-02-05T03:03:17.642Z,103340.88
2023-02-05T03:05:45.635Z,103339.22
2023-02-05T03:08:21.651Z,103340.03
2023-02-05T03:10:53.038Z,103345.34
2023-02-05T03:13:19.918Z,103345.75
2023-02-05T03:15:52.132Z,103341.84
2023-02-05T03:18:22.900Z,103337.31
2023-02-05T03:20:58.151Z,103336.88
2023-02-05T03:23:27.032Z,103333.38
2023-02-05T03:25:53.837Z,103341.75
2023-02-05T03:28:25.942Z,103344.41
2023-02-05T03:30:59.011Z,103340.06
2023-02-05T03:33:33.475Z,103341.09
2023-02-05T03:36:21.018Z,103340.28
2023-02-05T03:38:57.060Z,103332.88
2023-02-05T03:41:53.619Z,103327.34
2023-02-05T03:44:54.686Z,103330.38
2023-02-05T03:47:37.986Z,103329.19
2023-02-05T03:50:07.479Z,103327.34
2023-02-05T03:52:37.737Z,103335.94
2023-02-05T03:55:11.330Z,103333.28
2023-02-05T03:57:43.466Z,103334.94
2023-02-05T04:00:12.029Z,103335.53
2023-02-05T04:02:43.350Z,103349.44
2023-02-05T04:05:13.449Z,103351.09
2023-02-05T04:07:41.756Z,103353.34
2023-02-05T04:10:10.019Z,103357.25
2023-02-05T04:12:37.349Z,103351.56
2023-02-05T04:15:07.412Z,103348.53
2023-02-05T04:17:34.983Z,103348.34
2023-02-05T04:20:02.219Z,103360.00
2023-02-05T04:22:30.058Z,103355.34
2023-02-05T04:24:57.098Z,103357.59
2023-02-05T04:27:23.716Z,103349.44
2023-02-05T04:29:50.845Z,103346.00
2023-02-05T04:32:17.487Z,103345.34
2023-02-05T04:34:44.064Z,103350.66
2023-02-05T04:37:12.354Z,103341.66
2023-02-05T04:39:39.601Z,103351.47
2023-02-05T04:42:06.151Z,103340.03
2023-02-05T04:44:32.741Z,103344.13
2023-02-05T04:46:59.752Z,103342.31
2023-02-05T04:49:26.323Z,103342.94
2023-02-05T04:51:52.827Z,103339.25
2023-02-05T04:54:19.362Z,103335.41
2023-02-05T04:56:46.988Z,103334.19
2023-02-05T04:59:13.531Z,103329.53
2023-02-05T05:01:40.751Z,103334.25
2023-02-05T05:04:07.328Z,103336.69
2023-02-05T05:06:33.878Z,103335.50
2023-02-05T05:09:00.417Z,103341.59
2023-02-05T05:11:26.967Z,103336.28
2023-02-05T05:13:53.503Z,103328.97
2023-02-05T05:16:20.169Z,103333.06
2023-02-05T05:18:46.863Z,103329.19
2023-02-05T05:21:13.472Z,103325.53
2023-02-05T05:23:40.020Z,103327.78
2023-02-05T05:26:08.296Z,103330.25
2023-02-05T05:28:35.554Z,103334.53
2023-02-05T05:31:11.043Z,103335.19
2023-02-05T05:33:37.928Z,103333.50
2023-02-05T05:36:05.706Z,103338.81
2023-02-05T05:38:32.274Z,103347.63
2023-02-05T05:41:17.609Z,103354.13
2023-02-05T05:43:46.969Z,103363.06
2023-02-05T05:46:26.652Z,103370.81
2023-02-05T05:48:55.753Z,103371.22
2023-02-05T05:51:23.109Z,103366.28
2023-02-05T05:53:49.962Z,103356.44
2023-02-05T05:56:17.080Z,103357.22
2023-02-05T05:58:43.705Z,103353.31
2023-02-05T06:01:11.116Z,103349.44
2023-02-05T06:03:37.691Z,103350.47
2023-02-05T06:06:05.978Z,103339.66
2023-02-05T06:08:32.922Z,103337.63
2023-02-05T06:10:59.814Z,103341.28
2023-02-05T06:13:28.213Z,103339.00
2023-02-05T06:15:54.971Z,103336.13
2023-02-05T06:18:23.699Z,103342.88
2023-02-05T06:20:50.750Z,103343.28
2023-02-05T06:23:17.371Z,103335.13
2023-02-05T06:25:43.957Z,103340.69
2023-02-05T06:28:10.585Z,103342.75
2023-02-05T06:30:37.303Z,103347.09
2023-02-05T06:33:03.939Z,103351.97
2023-02-05T06:35:30.461Z,103344.44
2023-02-05T06:37:57.017Z,103338.47
2023-02-05T06:40:25.860Z,103343.34
2023-02-05T06:42:53.447Z,103348.84
2023-02-05T06:45:19.988Z,103343.41
2023-02-05T06:47:46.612Z,103337.31
2023-02-05T06:50:13.422Z,103331.63
2023-02-05T06:52:40.011Z,103345.94
2023-02-05T06:55:06.691Z,103353.31
2023-02-05T06:57:33.869Z,103369.47
2023-02-05T07:00:00.435Z,103369.69
2023-02-05T07:02:27.203Z,103363.97
2023-02-05T07:04:53.754Z,103362.28
2023-02-05T07:07:20.311Z,103357.81
2023-02-05T07:09:46.919Z,103361.50
2023-02-05T07:12:13.426Z,103366.03
2023-02-05T07:14:40.779Z,103355.19
2023-02-05T07:17:08.015Z,103355.00
2023-02-05T07:19:35.094Z,103354.19
2023-02-05T07:22:01.703Z,103349.72
2023-02-05T07:24:28.218Z,103348.50
2023-02-05T07:26:54.721Z,103332.97
2023-02-05T07:29:21.558Z,103340.13
2023-02-05T07:31:51.152Z,103334.22
2023-02-05T07:34:17.803Z,103345.28
2023-02-05T07:36:44.455Z,103337.13
2023-02-05T07:39:11.171Z,103347.34
2023-02-05T07:41:37.663Z,103338.56
2023-02-05T07:44:05.141Z,103335.72
2023-02-05T07:46:31.774Z,103331.03
2023-02-05T07:48:58.439Z,103334.13
2023-02-05T07:51:25.982Z,103327.78
2023-02-05T07:53:53.326Z,103325.78
2023-02-05T07:56:23.003Z,103327.44
2023-02-05T07:58:49.536Z,103324.53
2023-02-05T08:01:16.205Z,103324.56
2023-02-05T08:03:43.282Z,103328.06
2023-02-05T08:06:13.899Z,103324.34
2023-02-05T08:08:40.459Z,103322.28
2023-02-05T08:11:07.284Z,103317.78
2023-02-05T08:13:34.193Z,103315.13
2023-02-05T08:16:05.260Z,103308.81
2023-02-05T08:18:31.904Z,103309.88
2023-02-05T08:20:58.511Z,103307.41
2023-02-05T08:23:25.156Z,103304.13
2023-02-05T08:25:55.985Z,103308.22
2023-02-05T08:28:22.567Z,103308.63
2023-02-05T08:30:49.107Z,103310.69
2023-02-05T08:33:15.789Z,103304.16
2023-02-05T08:35:42.337Z,103313.78
2023-02-05T08:38:08.871Z,103310.28
2023-02-05T08:40:36.163Z,103302.94
2023-02-05T08:43:02.778Z,103304.38
2023-02-05T08:45:29.957Z,103308.69
2023-02-05T08:47:56.721Z,103301.91
2023-02-05T08:50:23.498Z,103294.31
2023-02-05T08:52:50.061Z,103300.47
2023-02-05T08:55:26.549Z,103295.56
2023-02-05T08:57:53.066Z,103301.66
2023-02-05T09:00:21.104Z,103309.22
2023-02-05T09:02:47.769Z,103316.81
2023-02-05T09:05:14.303Z,103311.06
2023-02-05T09:07:41.042Z,103309.81
2023-02-05T09:10:09.669Z,103312.28
2023-02-05T09:12:36.388Z,103312.22
2023-02-05T09:15:02.917Z,103300.59
2023-02-05T09:17:29.430Z,103302.22
2023-02-05T09:19:56.200Z,103301.00
2023-02-05T09:22:22.822Z,103301.22
2023-02-05T09:24:49.471Z,103302.88
2023-02-05T09:27:16.046Z,103303.25
2023-02-05T09:29:42.889Z,103304.25
2023-02-05T09:32:09.392Z,103304.03
2023-02-05T09:34:35.913Z,103302.00
2023-02-05T09:37:02.443Z,103305.72
2023-02-05T09:40:13.093Z,103306.56
2023-02-05T09:42:32.250Z,103314.69
2023-02-05T09:45:20.694Z,103316.75
2023-02-05T09:48:02.402Z,103308.13
2023-02-05T09:50:30.502Z,103306.88
2023-02-05T09:53:01.978Z,103311.97
2023-02-05T09:55:34.756Z,103310.91
2023-02-05T09:58:12.381Z,103305.13
2023-02-05T10:01:00.975Z,103302.25
2023-02-05T10:03:42.456Z,103296.06
2023-02-05T10:06:27.006Z,103299.94
2023-02-05T10:09:04.071Z,103296.78
2023-02-05T10:11:49.263Z,103292.88
2023-02-05T10:14:33.930Z,103298.03
2023-02-05T10:17:38.367Z,103294.53
2023-02-05T10:20:27.343Z,103284.69
2023-02-05T10:23:09.376Z,103283.66
2023-02-05T10:25:54.968Z,103282.75
2023-02-05T10:28:40.737Z,103278.22
2023-02-05T10:31:32.008Z,103272.47
2023-02-05T10:34:46.441Z,103270.91
2023-02-05T10:37:18.900Z,103267.53
2023-02-05T10:39:47.086Z,103260.63
2023-02-05T10:42:24.068Z,103253.44
2023-02-05T10:44:56.502Z,103254.31
2023-02-05T10:47:43.570Z,103249.56
2023-02-05T10:50:43.609Z,103255.44
2023-02-05T10:53:10.131Z,103244.59
2023-02-05T10:55:36.830Z,103246.69
2023-02-05T10:58:26.010Z,103243.75
2023-02-05T11:00:52.548Z,103237.91
2023-02-05T11:03:19.845Z,103241.03
2023-02-05T11:05:47.173Z,103239.16
2023-02-05T11:08:34.852Z,103235.78
2023-02-05T11:11:02.242Z,103229.84
2023-02-05T11:13:30.134Z,103235.41
2023-02-05T11:16:05.004Z,103242.56
2023-02-05T11:18:55.743Z,103241.94
2023-02-05T11:21:22.254Z,103245.47
2023-02-05T11:23:58.063Z,103242.41
2023-02-05T11:26:27.937Z,103243.34
2023-02-05T11:28:54.610Z,103239.19
2023-02-05T11:31:25.806Z,103231.31
2023-02-05T11:34:09.331Z,103236.41
2023-02-05T11:36:37.609Z,103236.41
2023-02-05T11:39:05.522Z,103232.59
2023-02-05T11:41:53.877Z,103235.19
2023-02-05T11:44:32.250Z,103234.72
2023-02-05T11:47:00.224Z,103235.44
2023-02-05T11:49:32.485Z,103241.59
2023-02-05T11:51:59.179Z,103240.31
2023-02-05T11:54:31.672Z,103235.69
2023-02-05T11:57:06.646Z,103240.34
2023-02-05T11:59:34.397Z,103237.09
2023-02-05T12:02:29.558Z,103247.53
2023-02-05T12:05:25.052Z,103251.13
2023-02-05T12:08:01.600Z,103247.31
2023-02-05T12:11:00.957Z,103247.78
2023-02-05T12:14:05.243Z,103234.91
2023-02-05T12:16:48.827Z,103228.50
2023-02-05T12:19:20.853Z,103222.38
2023-02-05T12:21:59.856Z,103237.22
2023-02-05T12:24:43.429Z,103225.28
2023-02-05T12:27:34.244Z,103231.72
2023-02-05T12:30:15.991Z,103231.81
2023-02-05T12:33:13.463Z,103228.69
2023-02-05T12:35:58.291Z,103222.88
2023-02-05T12:38:38.079Z,103218.69
2023-02-05T12:41:26.528Z,103208.13
2023-02-05T12:43:56.339Z,103221.72
2023-02-05T12:46:46.327Z,103223.72
2023-02-05T12:49:35.138Z,103216.16
2023-02-05T12:52:18.679Z,103215.91
2023-02-05T12:54:57.907Z,103218.72
2023-02-05T12:57:29.084Z,103215.69
2023-02-05T12:59:58.900Z,103224.84
2023-02-05T13:02:38.889Z,103228.31
2023-02-05T13:05:22.132Z,103231.53
2023-02-05T13:07:54.182Z,103236.59
2023-02-05T13:10:26.906Z,103244.56
2023-02-05T13:12:59.541Z,103242.56
2023-02-05T13:15:30.681Z,103238.50
2023-02-05T13:18:02.164Z,103230.16
2023-02-05T13:20:51.810Z,103238.84
2023-02-05T13:23:37.172Z,103239.06
2023-02-05T13:26:16.297Z,103237.47
2023-02-05T13:28:47.465Z,103237.88
2023-02-05T13:31:31.273Z,103224.91
2023-02-05T13:34:03.448Z,103232.78
2023-02-05T13:36:41.317Z,103235.81
2023-02-05T13:40:00.573Z,103246.41
2023-02-05T13:42:43.715Z,103251.16
2023-02-05T13:45:45.616Z,103263.75
2023-02-05T13:48:25.684Z,103266.16
2023-02-05T13:51:29.532Z,103267.34
2023-02-05T13:54:23.214Z,103274.72
2023-02-05T13:57:15.406Z,103282.22
2023-02-05T13:59:46.556Z,103265.69
2023-02-05T14:02:37.657Z,103254.06
2023-02-05T14:05:04.268Z,103250.38
2023-02-05T14:07:35.881Z,103256.41
2023-02-05T14:10:02.715Z,103249.53
2023-02-05T14:12:31.082Z,103240.47
2023-02-05T14:15:15.578Z,103236.16
2023-02-05T14:17:45.315Z,103240.13
2023-02-05T14:20:24.036Z,103247.47
2023-02-05T14:23:03.028Z,103260.84
2023-02-05T14:25:36.332Z,103257.53
2023-02-05T14:28:04.369Z,103250.56
2023-02-05T14:30:30.946Z,103236.50
2023-02-05T14:33:02.592Z,103230.78
2023-02-05T14:35:31.549Z,103229.38
2023-02-05T14:38:22.527Z,103211.81
2023-02-05T14:41:05.242Z,103206.41
2023-02-05T14:43:34.186Z,103203.75
2023-02-05T14:46:07.831Z,103223.03
2023-02-05T14:48:39.098Z,103217.25
2023-02-05T14:51:25.915Z,103222.34
2023-02-05T14:54:15.448Z,103217.31
2023-02-05T14:56:46.770Z,103212.19
2023-02-05T14:59:29.835Z,103221.63
2023-02-05T15:01:57.384Z,103231.22
2023-02-05T15:04:28.348Z,103232.84
2023-02-05T15:06:55.039Z,103233.41
2023-02-05T15:09:40.203Z,103251.72
2023-02-05T15:12:25.042Z,103243.50
2023-02-05T15:14:52.212Z,103248.53
2023-02-05T15:17:27.583Z,103256.69
2023-02-05T15:19:56.373Z,103261.31
2023-02-05T15:22:36.973Z,103265.97
2023-02-05T15:25:09.606Z,103278.81
2023-02-05T15:27:44.910Z,103276.97
2023-02-05T15:30:18.510Z,103275.22
2023-02-05T15:32:52.252Z,103266.16
2023-02-05T15:35:25.737Z,103263.13
2023-02-05T15:37:57.713Z,103255.16
2023-02-05T15:40:27.494Z,103258.88
2023-02-05T15:42:59.062Z,103270.41
2023-02-05T15:45:34.415Z,103280.25
2023-02-05T15:48:03.634Z,103278.25
2023-02-05T15:50:30.793Z,103274.75
2023-02-05T15:52:57.874Z,103273.81
2023-02-05T15:55:26.950Z,103278.53
2023-02-05T15:57:58.060Z,103297.22
2023-02-05T16:00:27.419Z,103299.09
2023-02-05T16:02:56.882Z,103296.47
2023-02-05T16:05:24.032Z,103308.19
2023-02-05T16:07:58.783Z,103305.53
2023-02-05T16:10:27.685Z,103305.16
2023-02-05T16:13:20.952Z,103306.00
2023-02-05T16:16:08.343Z,103318.41
2023-02-05T16:18:38.654Z,103316.75
2023-02-05T16:21:14.148Z,103305.56
2023-02-05T16:23:44.429Z,103310.09
2023-02-05T16:26:19.645Z,103299.06
2023-02-05T16:28:48.856Z,103283.72
2023-02-05T16:31:18.564Z,103282.88
2023-02-05T16:33:56.556Z,103285.84
2023-02-05T16:36:25.018Z,103291.16
2023-02-05T16:38:59.689Z,103290.59
2023-02-05T16:41:34.984Z,103289.97
2023-02-05T16:44:06.692Z,103287.19
2023-02-05T16:46:35.064Z,103282.06
2023-02-05T16:49:22.089Z,103280.44
2023-02-05T16:51:48.515Z,103289.03
2023-02-05T16:54:18.014Z,103293.53
2023-02-05T16:56:48.897Z,103297.03
2023-02-05T16:59:19.509Z,103305.31
2023-02-05T17:01:46.158Z,103303.06
2023-02-05T17:04:32.125Z,103291.19
2023-02-05T17:07:00.261Z,103286.09
2023-02-05T17:09:33.884Z,103279.16
2023-02-05T17:12:22.864Z,103283.66
2023-02-05T17:14:57.514Z,103277.19
2023-02-05T17:17:25.357Z,103277.19
2023-02-05T17:20:16.877Z,103277.38
2023-02-05T17:22:58.312Z,103280.88
2023-02-05T17:25:25.533Z,103285.56
2023-02-05T17:27:52.124Z,103288.03
2023-02-05T17:30:19.635Z,103279.03
2023-02-05T17:32:46.995Z,103286.88
2023-02-05T17:35:14.870Z,103292.44
2023-02-05T17:37:41.447Z,103307.66
2023-02-05T17:40:08.889Z,103311.34
2023-02-05T17:42:35.500Z,103318.31
2023-02-05T17:45:02.031Z,103325.66
2023-02-05T17:47:28.616Z,103326.25
2023-02-05T17:49:55.262Z,103328.53
2023-02-05T17:52:21.745Z,103323.00
2023-02-05T17:54:48.370Z,103327.75
2023-02-05T17:57:15.313Z,103334.28
2023-02-05T17:59:44.690Z,103333.66
2023-02-05T18:02:12.408Z,103335.31
2023-02-05T18:04:39.440Z,103336.94
2023-02-05T18:07:15.363Z,103330.59
2023-02-05T18:09:41.933Z,103337.56
2023-02-05T18:12:08.448Z,103342.09
2023-02-05T18:14:34.926Z,103345.16
2023-02-05T18:17:01.725Z,103359.09
2023-02-05T18:19:29.470Z,103368.13
2023-02-05T18:21:55.966Z,103376.53
2023-02-05T18:24:22.471Z,103367.09
2023-02-05T18:26:52.619Z,103377.38
2023-02-05T18:29:21.427Z,103380.88
2023-02-05T18:31:48.742Z,103390.88
2023-02-05T18:34:15.519Z,103378.81
2023-02-05T18:36:42.053Z,103368.78
2023-02-05T18:39:09.832Z,103379.22
2023-02-05T18:41:37.062Z,103381.69
2023-02-05T18:44:03.913Z,103382.31
2023-02-05T18:46:30.627Z,103392.78
2023-02-05T18:48:57.168Z,103386.22
2023-02-05T18:51:23.865Z,103386.63
2023-02-05T18:53:50.454Z,103394.22
2023-02-05T18:56:22.223Z,103383.38
2023-02-05T18:59:01.397Z,103394.00
2023-02-05T19:01:30.103Z,103393.41
2023-02-05T19:04:01.128Z,103395.66
2023-02-05T19:06:27.930Z,103405.06
2023-02-05T19:08:56.449Z,103413.44
2023-02-05T19:11:24.581Z,103411.56
2023-02-05T19:13:59.225Z,103409.72
2023-02-05T19:16:27.407Z,103408.50
2023-02-05T19:18:53.960Z,103415.06
2023-02-05T19:21:21.347Z,103417.06
2023-02-05T19:23:53.554Z,103425.25
2023-02-05T19:26:22.556Z,103420.34
2023-02-05T19:28:55.964Z,103408.88
2023-02-05T19:31:27.736Z,103407.63
2023-02-05T19:33:55.332Z,103410.06
2023-02-05T19:36:22.585Z,103405.16
2023-02-05T19:38:49.420Z,103401.88
2023-02-05T19:41:20.728Z,103389.81
2023-02-05T19:43:55.112Z,103388.38
2023-02-05T19:46:28.552Z,103386.91
2023-02-05T19:48:56.277Z,103375.03
2023-02-05T19:51:22.967Z,103387.53
2023-02-05T19:53:49.613Z,103384.66
2023-02-05T19:56:21.600Z,103393.00
2023-02-05T19:58:50.644Z,103392.41
2023-02-05T20:01:23.741Z,103387.47
2023-02-05T20:03:55.608Z,103393.00
2023-02-05T20:06:23.755Z,103393.38
2023-02-05T20:08:50.407Z,103391.75
2023-02-05T20:11:17.964Z,103394.59
2023-02-05T20:13:45.119Z,103389.28
2023-02-05T20:16:18.617Z,103387.84
2023-02-05T20:18:45.550Z,103385.38
2023-02-05T20:21:18.808Z,103388.63
2023-02-05T20:23:46.164Z,103385.38
2023-02-05T20:26:14.369Z,103385.75
2023-02-05T20:29:00.558Z,103380.00
2023-02-05T20:31:34.771Z,103382.06
2023-02-05T20:34:06.080Z,103377.13
2023-02-05T20:36:33.967Z,103371.00
2023-02-05T20:39:02.868Z,103377.91
2023-02-05T20:41:29.451Z,103380.75
2023-02-05T20:43:57.143Z,103383.41
2023-02-05T20:46:24.067Z,103382.59
2023-02-05T20:48:50.879Z,103395.88
2023-02-05T20:51:18.964Z,103395.25
2023-02-05T20:53:45.837Z,103396.44
2023-02-05T20:56:18.371Z,103405.25
2023-02-05T20:58:44.910Z,103414.63
2023-02-05T21:01:15.794Z,103406.88
2023-02-05T21:03:43.352Z,103411.47
2023-02-05T21:06:10.817Z,103416.16
2023-02-05T21:08:43.349Z,103414.91
2023-02-05T21:11:10.296Z,103422.88
2023-02-05T21:13:37.200Z,103449.16
2023-02-05T21:16:04.290Z,103455.91
2023-02-05T21:18:31.005Z,103459.94
2023-02-05T21:21:12.414Z,103470.75
2023-02-05T21:23:39.051Z,103466.44
2023-02-05T21:26:06.337Z,103459.69
2023-02-05T21:28:33.397Z,103472.16
2023-02-05T21:31:09.330Z,103479.91
2023-02-05T21:33:36.232Z,103468.28
2023-02-05T21:36:04.622Z,103465.63
2023-02-05T21:38:34.648Z,103458.50
2023-02-05T21:41:06.864Z,103465.00
2023-02-05T21:43:33.570Z,103476.63
2023-02-05T21:46:08.458Z,103476.00
2023-02-05T21:48:35.410Z,103481.31
2023-02-05T21:51:07.348Z,103497.78
2023-02-05T21:53:33.952Z,103499.41
2023-02-05T21:56:02.476Z,103499.41
2023-02-05T21:58:31.916Z,103499.00
2023-02-05T22:01:13.285Z,103498.72
2023-02-05T22:03:41.011Z,103502.34
2023-02-05T22:06:08.595Z,103495.97
2023-02-05T22:08:36.357Z,103495.69
2023-02-05T22:11:05.430Z,103499.53
2023-02-05T22:13:36.410Z,103496.44
2023-02-05T22:16:08.423Z,103486.41
2023-02-05T22:18:35.435Z,103475.53
2023-02-05T22:21:10.038Z,103477.75
2023-02-05T22:23:36.655Z,103481.38
2023-02-05T22:26:03.303Z,103484.03
2023-02-05T22:28:30.147Z,103480.75
2023-02-05T22:31:05.310Z,103467.91
2023-02-05T22:33:32.628Z,103480.75
2023-02-05T22:35:59.743Z,103476.09
2023-02-05T22:38:27.055Z,103474.09
2023-02-05T22:40:53.922Z,103467.78
2023-02-05T22:43:21.199Z,103466.13
2023-02-05T22:45:47.737Z,103463.66
2023-02-05T22:48:14.365Z,103457.53
2023-02-05T22:50:41.729Z,103466.13
2023-02-05T22:53:08.899Z,103460.66
2023-02-05T22:55:36.584Z,103459.63
2023-02-05T22:58:04.110Z,103462.09
2023-02-05T23:00:31.384Z,103460.44
2023-02-05T23:02:59.427Z,103462.28
2023-02-05T23:05:30.312Z,103468.22
2023-02-05T23:07:56.879Z,103463.84
2023-02-05T23:10:23.988Z,103458.34
2023-02-05T23:12:50.591Z,103460.81
2023-02-05T23:15:17.223Z,103459.19
2023-02-05T23:17:43.751Z,103454.69
2023-02-05T23:20:10.902Z,103453.88
2023-02-05T23:22:37.460Z,103446.91
2023-02-05T23:25:05.520Z,103438.41
2023-02-05T23:27:32.840Z,103432.72
2023-02-05T23:29:59.965Z,103429.00
2023-02-05T23:32:26.590Z,103423.13
2023-02-05T23:34:53.096Z,103429.09
2023-02-05T23:37:19.615Z,103412.78
2023-02-05T23:39:46.237Z,103408.69
2023-02-05T23:42:12.892Z,103404.56
2023-02-05T23:44:39.389Z,103411.03
2023-02-05T23:47:05.949Z,103419.69
2023-02-05T23:49:32.461Z,103418.53
2023-02-05T23:51:59.182Z,103414.84
2023-02-05T23:54:25.713Z,103419.22
2023-02-05T23:56:52.546Z,103430.25
2023-02-05T23:59:19.247Z,103432.72
